Have a Safe July 4th! 

Flight Track Log - Related Links

Times and Time Zones

All times are in EDT time to prevent confusion due to time zone crossing. See the ASQ5201 flight status page for this flight to view local times or setup timezone preferences in your user account.

Time Position Orientation Groundspeed Altitude Reporting Facility
EDT Latitude Longitude Course Direction KTS MPH feet Rate Location/Type
Tue 03:41:56 PM 35.0167 -89.9833 195° South 161 185 1,100  Level Anchorage Center
Tue 03:43:14 PM 34.9667 -90.0000 253° West 202 232 2,900 1,985 Climbing Anchorage Center
Tue 03:44:12 PM 34.9500 -90.0667 270° West 252 290 5,600 2,103 Climbing Anchorage Center
Tue 03:45:11 PM 34.9500 -90.1500 284° West 254 292 7,000 1,115 Climbing Anchorage Center
Tue 03:46:05 PM 34.9667 -90.2333 270° West 259 298 7,700 1,641 Climbing Anchorage Center
Tue 03:47:08 PM 34.9667 -90.3333 282° West 269 310 10,200 2,380 Climbing Anchorage Center
Tue 03:48:06 PM 34.9833 -90.4333 278° West 282 325 12,500 1,949 Climbing Anchorage Center
Tue 03:49:05 PM 34.9947 -90.5344 277° West 311 358 14,000 756 Climbing Memphis Center
Tue 03:50:05 PM 35.0050 -90.6436 279° West 322 371 14,000  Level Memphis Center
Tue 03:51:05 PM 35.0192 -90.7578 273° West 336 387 14,000  Level Memphis Center
Tue 03:52:05 PM 35.0250 -90.8769 265° West 346 398 14,000  Level Memphis Center
Tue 03:53:05 PM 35.0161 -90.9961 268° West 351 404 14,000 -650 Level Memphis Center
Tue 03:54:05 PM 35.0114 -91.1278 265° West 351 404 12,700 -1,596 Descending Memphis Center
Tue 03:54:39 PM 35.0067 -91.1911 270° West 356 410 11,500 -1,781 Descending Memphis Center
Tue 03:55:09 PM 35.0064 -91.2469 268° West 353 406 10,800 -1,047 Descending Memphis Center
Tue 03:56:05 PM 35.0033 -91.3636 269° West 352 405 10,000 -414 Descending Memphis Center
Tue 03:57:05 PM 35.0022 -91.4803 271° West 352 405 10,000  Level Memphis Center
Tue 03:58:05 PM 35.0033 -91.5967 241° Southwest 345 397 10,000  Level Memphis Center
Tue 03:59:05 PM 34.9586 -91.6950 235° Southwest 324 373 10,000  Level Memphis Center
Tue 04:00:05 PM 34.9031 -91.7928 256° West 344 396 10,000 -550 Level Memphis Center
Tue 04:01:05 PM 34.8856 -91.8811 253° West 298 343 8,900 -1,970 Descending Memphis Center
Tue 04:02:19 PM 34.8592 -91.9894 254° West 259 298 5,600 -2,622 Descending Memphis Center
Tue 04:03:20 PM 34.8414 -92.0650 238° Southwest 248 285 3,000 -1,770 Descending Memphis Center
Tue 04:04:21 PM 34.8050 -92.1353 224° Southwest 228 262 2,000 -843 Descending Memphis Center
Tue 04:05:21 PM 34.7689 -92.1772 228° Southwest 182 209 1,300 -744 Descending Memphis Center
Tue 04:06:22 PM 34.7433 -92.2122 228° Southwest 137 158 500 -787 Descending Memphis Center

Login

Don't have an account? Register now (free) for customized features, flight alerts, and more!